Orbital elements of FENGYUN 1C DEB
| Launched | 9 May 1999 |
| Flight ended | – |
| Launch site | Taiyuan Space Center, PRC |
| Owner | People's Republic of China |
| NORAD ID | 31899 |
| Date fetched |
Epoch osculation |
Inc. [°] |
Ecc. | RA asc node [hr] |
Arg Peri. [°] |
Mean anom [°] |
Mean motion [rev/day] |
Abs. mag |
| Date fetched |
Epoch osculation |
Inc. [°] |
Ecc. | RA asc node [hr] |
Arg Peri. [°] |
Mean anom [°] |
Mean motion [rev/day] |
Abs. mag |
| 2026 May 04 17:57 | 2026 Apr 26 12:13:38 | 102.0759 | 0.01818 | 14.8240 | 193.5903 | 166.0309 | 13.83927 | – |
| 2026 May 03 17:57 | 2026 Apr 26 12:13:38 | 102.0759 | 0.01818 | 14.8240 | 193.5903 | 166.0309 | 13.83927 | – |
| 2026 May 02 17:57 | 2026 Apr 26 12:13:38 | 102.0759 | 0.01818 | 14.8240 | 193.5903 | 166.0309 | 13.83927 | – |
| 2026 May 01 17:56 | 2026 Apr 26 12:13:38 | 102.0759 | 0.01818 | 14.8240 | 193.5903 | 166.0309 | 13.83927 | – |
| 2026 Apr 30 17:56 | 2026 Apr 26 12:13:38 | 102.0759 | 0.01818 | 14.8240 | 193.5903 | 166.0309 | 13.83927 | – |
| 2026 Apr 29 17:57 | 2026 Apr 23 02:40:45 | 102.0754 | 0.01816 | 14.5336 | 201.6428 | 166.0309 | 13.83927 | – |
| 2026 Apr 28 17:56 | 2026 Apr 23 02:40:45 | 102.0754 | 0.01816 | 14.5336 | 201.6428 | 166.0309 | 13.83927 | – |
| 2026 Apr 27 17:58 | 2026 Apr 23 02:40:45 | 102.0754 | 0.01816 | 14.5336 | 201.6428 | 166.0309 | 13.83927 | – |
| 2026 Apr 26 17:58 | 2026 Apr 23 02:40:45 | 102.0754 | 0.01816 | 14.5336 | 201.6428 | 166.0309 | 13.83927 | – |
| 2026 Apr 25 17:58 | 2026 Apr 23 02:40:45 | 102.0754 | 0.01816 | 14.5336 | 201.6428 | 166.0309 | 13.83927 | – |
| 2026 Apr 24 17:59 | 2026 Apr 23 02:40:45 | 102.0754 | 0.01816 | 14.5336 | 201.6428 | 166.0309 | 13.83927 | – |
| 2026 Apr 23 17:57 | 2026 Apr 14 00:03:29 | 102.0745 | 0.01811 | 13.7553 | 223.3412 | 166.0309 | 13.83927 | – |
| 2026 Apr 22 17:57 | 2026 Apr 14 00:03:29 | 102.0745 | 0.01811 | 13.7553 | 223.3412 | 166.0309 | 13.83927 | – |
| 2026 Apr 21 17:57 | 2026 Apr 14 00:03:29 | 102.0745 | 0.01811 | 13.7553 | 223.3412 | 166.0309 | 13.83927 | – |
| 2026 Apr 20 17:57 | 2026 Apr 14 00:03:29 | 102.0745 | 0.01811 | 13.7553 | 223.3412 | 166.0309 | 13.83927 | – |
| 2026 Apr 19 17:58 | 2026 Apr 14 00:03:29 | 102.0745 | 0.01811 | 13.7553 | 223.3412 | 166.0309 | 13.83927 | – |
| 2026 Apr 18 17:56 | 2026 Apr 12 13:21:22 | 102.0746 | 0.01810 | 13.6317 | 226.7884 | 166.0309 | 13.83927 | – |
| 2026 Apr 16 17:57 | 2026 Apr 12 13:21:22 | 102.0746 | 0.01810 | 13.6317 | 226.7884 | 166.0309 | 13.83927 | – |
| 2026 Apr 14 17:57 | 2026 Apr 12 13:21:22 | 102.0746 | 0.01810 | 13.6317 | 226.7884 | 166.0309 | 13.83927 | – |
| 2026 Apr 13 17:57 | 2026 Apr 12 13:21:22 | 102.0746 | 0.01810 | 13.6317 | 226.7884 | 166.0309 | 13.83927 | – |
| 2026 Apr 12 17:57 | 2026 Apr 08 00:02:40 | 102.0744 | 0.01808 | 13.2426 | 237.6619 | 166.0309 | 13.83927 | – |
| 2026 Apr 11 17:57 | 2026 Apr 08 00:02:40 | 102.0744 | 0.01808 | 13.2426 | 237.6619 | 166.0309 | 13.83927 | – |
| 2026 Apr 10 17:58 | 2026 Apr 08 00:02:40 | 102.0744 | 0.01808 | 13.2426 | 237.6619 | 166.0309 | 13.83927 | – |
| 2026 Apr 09 18:01 | 2026 Apr 08 00:02:40 | 102.0744 | 0.01808 | 13.2426 | 237.6619 | 166.0309 | 13.83927 | – |
| 2026 Apr 08 17:57 | 2026 Apr 08 00:02:40 | 102.0744 | 0.01808 | 13.2426 | 237.6619 | 166.0309 | 13.83927 | – |
| 2026 Apr 07 17:57 | 2026 Apr 02 00:01:45 | 102.0743 | 0.01803 | 12.7299 | 252.0062 | 166.0309 | 13.83927 | – |